createdAt,value
2018-11-27T00:01:02.280Z,3.90
2018-11-27T00:03:37.382Z,3.90
2018-11-27T00:06:07.306Z,3.90
2018-11-27T00:08:37.307Z,3.90
2018-11-27T00:11:07.152Z,3.90
2018-11-27T00:13:37.026Z,3.90
2018-11-27T00:16:06.964Z,3.90
2018-11-27T00:18:36.926Z,3.90
2018-11-27T00:21:07.048Z,3.90
2018-11-27T00:23:36.936Z,3.90
2018-11-27T00:26:07.177Z,3.80
2018-11-27T00:28:37.043Z,3.80
2018-11-27T00:31:07.349Z,3.80
2018-11-27T00:33:37.184Z,3.80
2018-11-27T00:36:07.081Z,3.80
2018-11-27T00:38:36.980Z,3.80
2018-11-27T00:41:06.869Z,3.80
2018-11-27T00:43:36.754Z,3.80
2018-11-27T00:46:13.838Z,3.80
2018-11-27T00:48:43.693Z,3.80
2018-11-27T00:51:13.546Z,3.80
2018-11-27T00:53:43.437Z,3.80
2018-11-27T00:56:13.317Z,3.80
2018-11-27T00:58:43.195Z,3.80
2018-11-27T01:01:13.060Z,3.80
2018-11-27T01:03:42.925Z,3.80
2018-11-27T01:06:12.777Z,3.80
2018-11-27T01:08:42.652Z,3.80
2018-11-27T01:11:12.604Z,3.70
2018-11-27T01:13:42.457Z,3.80
2018-11-27T01:16:12.381Z,3.70
2018-11-27T01:18:42.343Z,3.70
2018-11-27T01:21:12.166Z,3.80
2018-11-27T01:23:42.071Z,3.80
2018-11-27T01:26:11.917Z,3.80
2018-11-27T01:28:41.757Z,3.80
2018-11-27T01:31:11.694Z,3.80
2018-11-27T01:33:41.522Z,3.80
2018-11-27T01:36:11.438Z,3.80
2018-11-27T01:38:41.289Z,3.80
2018-11-27T01:41:11.170Z,3.70
2018-11-27T01:43:41.044Z,3.80
2018-11-27T01:46:10.909Z,3.80
2018-11-27T01:48:40.823Z,3.80
2018-11-27T01:51:10.668Z,3.80
2018-11-27T01:53:40.547Z,3.80
2018-11-27T01:56:10.412Z,3.80
2018-11-27T01:58:43.696Z,3.80
2018-11-27T02:01:13.651Z,3.80
2018-11-27T02:03:43.581Z,3.80
2018-11-27T02:06:13.491Z,3.80
2018-11-27T02:08:43.529Z,3.80
2018-11-27T02:11:13.342Z,3.80
2018-11-27T02:13:43.240Z,3.80
2018-11-27T02:16:13.054Z,3.80
2018-11-27T02:18:42.921Z,3.80
2018-11-27T02:21:12.804Z,3.80
2018-11-27T02:23:42.686Z,3.80
2018-11-27T02:26:12.600Z,3.80
2018-11-27T02:28:42.539Z,3.80
2018-11-27T02:31:12.449Z,3.80
2018-11-27T02:33:42.362Z,3.70
2018-11-27T02:36:12.382Z,3.80
2018-11-27T02:38:42.274Z,3.70
2018-11-27T02:41:12.204Z,3.80
2018-11-27T02:43:42.072Z,3.80
2018-11-27T02:46:11.951Z,3.80
2018-11-27T02:48:41.835Z,3.80
2018-11-27T02:51:11.689Z,3.80
2018-11-27T02:53:41.681Z,3.70
2018-11-27T02:56:11.571Z,3.70
2018-11-27T02:58:41.436Z,3.70
2018-11-27T03:01:11.342Z,3.70
2018-11-27T03:03:41.254Z,3.70
2018-11-27T03:06:11.072Z,3.70
2018-11-27T03:08:40.959Z,3.70
2018-11-27T03:11:10.920Z,3.70
2018-11-27T03:13:40.777Z,3.70
2018-11-27T03:16:10.642Z,3.70
2018-11-27T03:18:41.562Z,3.70
2018-11-27T03:21:11.535Z,3.70
2018-11-27T03:23:41.418Z,3.70
2018-11-27T03:26:11.362Z,3.70
2018-11-27T03:28:41.272Z,3.60
2018-11-27T03:31:11.290Z,3.70
2018-11-27T03:33:41.169Z,3.60
2018-11-27T03:36:11.316Z,3.60
2018-11-27T03:38:41.335Z,3.60
2018-11-27T03:41:11.135Z,3.60
2018-11-27T03:43:41.026Z,3.60
2018-11-27T03:46:10.894Z,3.60
2018-11-27T03:48:40.785Z,3.60
2018-11-27T03:51:10.636Z,3.60
2018-11-27T03:53:40.568Z,3.60
2018-11-27T03:56:10.451Z,3.60
2018-11-27T03:58:40.409Z,3.60
2018-11-27T04:01:10.357Z,3.60
2018-11-27T04:03:40.222Z,3.60
2018-11-27T04:06:10.116Z,3.60
2018-11-27T04:08:40.046Z,3.60
2018-11-27T04:11:09.936Z,3.60
2018-11-27T04:13:39.795Z,3.60
2018-11-27T04:16:09.693Z,3.60
2018-11-27T04:18:39.575Z,3.60
2018-11-27T04:21:09.430Z,3.60
2018-11-27T04:23:39.398Z,3.60
2018-11-27T04:26:09.253Z,3.60
2018-11-27T04:28:39.114Z,3.60
2018-11-27T04:31:09.043Z,3.60
2018-11-27T04:33:38.920Z,3.60
2018-11-27T04:36:08.851Z,3.60
2018-11-27T04:38:38.814Z,3.60
2018-11-27T04:41:08.730Z,3.60
2018-11-27T04:43:38.633Z,3.60
2018-11-27T04:46:08.529Z,3.60
2018-11-27T04:48:38.518Z,3.60
2018-11-27T04:51:08.507Z,3.60
2018-11-27T04:53:38.397Z,3.50
2018-11-27T04:56:08.310Z,3.50
2018-11-27T04:58:38.218Z,3.50
2018-11-27T05:01:08.175Z,3.50
2018-11-27T05:03:38.125Z,3.50
2018-11-27T05:06:08.030Z,3.50
2018-11-27T05:08:37.963Z,3.50
2018-11-27T05:11:07.937Z,3.50
2018-11-27T05:13:37.887Z,3.50
2018-11-27T05:16:07.890Z,3.50
2018-11-27T05:18:37.810Z,3.50
2018-11-27T05:21:07.870Z,3.50
2018-11-27T05:23:37.792Z,3.50
2018-11-27T05:26:07.702Z,3.50
2018-11-27T05:28:37.696Z,3.50
2018-11-27T05:31:07.699Z,3.50
2018-11-27T05:33:37.591Z,3.50
2018-11-27T05:36:07.552Z,3.50
2018-11-27T05:38:37.522Z,3.50
2018-11-27T05:41:07.403Z,3.50
2018-11-27T05:43:37.401Z,3.50
2018-11-27T05:46:07.358Z,3.50
2018-11-27T05:48:37.248Z,3.50
2018-11-27T05:51:07.664Z,3.50
2018-11-27T05:53:37.613Z,3.50
2018-11-27T05:56:07.511Z,3.50
2018-11-27T05:58:37.422Z,3.40
2018-11-27T06:01:07.468Z,3.50
2018-11-27T06:03:37.338Z,3.50
2018-11-27T06:06:07.253Z,3.50
2018-11-27T06:08:37.149Z,3.50
2018-11-27T06:11:07.624Z,3.50
2018-11-27T06:13:37.481Z,3.50
2018-11-27T06:16:08.616Z,3.50
2018-11-27T06:18:38.487Z,3.50
2018-11-27T06:21:08.466Z,3.50
2018-11-27T06:23:38.475Z,3.50
2018-11-27T06:26:08.424Z,3.50
2018-11-27T06:28:38.333Z,3.50
2018-11-27T06:31:08.280Z,3.50
2018-11-27T06:33:38.285Z,3.50
2018-11-27T06:36:09.046Z,3.50
2018-11-27T06:38:39.008Z,3.50
2018-11-27T06:41:08.963Z,3.50
2018-11-27T06:43:38.979Z,3.50
2018-11-27T06:46:08.849Z,3.50
2018-11-27T06:48:38.888Z,3.50
2018-11-27T06:51:09.594Z,3.50
2018-11-27T06:53:39.545Z,3.50
2018-11-27T06:56:10.573Z,3.50
2018-11-27T06:58:40.481Z,3.50
2018-11-27T07:01:10.378Z,3.50
2018-11-27T07:03:40.326Z,3.50
2018-11-27T07:06:10.201Z,3.50
2018-11-27T07:08:40.232Z,3.50
2018-11-27T07:11:10.278Z,3.50
2018-11-27T07:13:40.301Z,3.50
2018-11-27T07:16:10.328Z,3.40
2018-11-27T07:18:40.314Z,3.50
2018-11-27T07:21:10.298Z,3.40
2018-11-27T07:23:40.301Z,3.50
2018-11-27T07:26:10.301Z,3.50
2018-11-27T07:28:40.206Z,3.50
2018-11-27T07:31:10.198Z,3.50
2018-11-27T07:33:40.134Z,3.50
2018-11-27T07:36:11.170Z,3.50
2018-11-27T07:38:41.540Z,3.50
2018-11-27T07:41:11.424Z,3.50
2018-11-27T07:43:43.199Z,3.40
2018-11-27T07:46:13.111Z,3.40
2018-11-27T07:48:42.993Z,3.50
2018-11-27T07:51:12.963Z,3.50
2018-11-27T07:53:42.955Z,3.40
2018-11-27T07:56:12.945Z,3.50
2018-11-27T07:58:43.389Z,3.50
2018-11-27T08:01:13.246Z,3.50
2018-11-27T08:03:43.197Z,3.50
2018-11-27T08:06:13.090Z,3.50
2018-11-27T08:08:43.001Z,3.50
2018-11-27T08:11:12.964Z,3.50
2018-11-27T08:13:42.866Z,3.50
2018-11-27T08:16:12.851Z,3.50
2018-11-27T08:18:43.773Z,3.50
2018-11-27T08:21:14.750Z,3.50
2018-11-27T08:23:44.682Z,3.50
2018-11-27T08:26:14.655Z,3.50
2018-11-27T08:28:44.536Z,3.60
2018-11-27T08:31:14.485Z,3.60
2018-11-27T08:33:44.363Z,3.60
2018-11-27T08:36:14.335Z,3.60
2018-11-27T08:38:44.265Z,3.60
2018-11-27T08:41:14.179Z,3.60
2018-11-27T08:43:44.069Z,3.60
2018-11-27T08:46:14.055Z,3.60
2018-11-27T08:48:44.180Z,3.60
2018-11-27T08:51:14.294Z,3.60
2018-11-27T08:53:45.211Z,3.60
2018-11-27T08:56:15.129Z,3.60
2018-11-27T08:58:45.009Z,3.60
2018-11-27T09:01:14.992Z,3.60
2018-11-27T09:03:46.516Z,3.60
2018-11-27T09:06:14.911Z,3.60
2018-11-27T09:08:44.819Z,3.60
2018-11-27T09:11:14.768Z,3.60
2018-11-27T09:13:44.689Z,3.50
2018-11-27T09:16:14.694Z,3.60
2018-11-27T09:18:45.004Z,3.60
2018-11-27T09:21:14.939Z,3.50
2018-11-27T09:23:44.871Z,3.60
2018-11-27T09:26:14.844Z,3.60
2018-11-27T09:28:44.785Z,3.60
2018-11-27T09:31:14.738Z,3.60
2018-11-27T09:33:44.661Z,3.60
2018-11-27T09:36:14.585Z,3.60
2018-11-27T09:38:44.545Z,3.60
2018-11-27T09:41:14.473Z,3.60
2018-11-27T09:43:44.383Z,3.60
2018-11-27T09:46:14.354Z,3.60
2018-11-27T09:48:44.627Z,3.60
2018-11-27T09:51:14.616Z,3.60
2018-11-27T09:53:44.606Z,3.60
2018-11-27T09:56:14.629Z,3.60
2018-11-27T09:58:44.541Z,3.60
2018-11-27T10:01:14.609Z,3.60
2018-11-27T10:03:44.549Z,3.60
2018-11-27T10:06:14.541Z,3.60
2018-11-27T10:08:44.442Z,3.60
2018-11-27T10:11:15.634Z,3.60
2018-11-27T10:15:12.712Z,3.60
2018-11-27T10:17:42.901Z,3.60
2018-11-27T10:20:16.855Z,3.60
2018-11-27T10:22:46.918Z,3.60
2018-11-27T10:25:16.835Z,3.60
2018-11-27T10:27:47.837Z,3.60
2018-11-27T10:30:20.328Z,3.60
2018-11-27T10:32:51.657Z,3.50
2018-11-27T10:35:25.270Z,3.60
2018-11-27T10:37:56.306Z,3.60
2018-11-27T10:40:26.192Z,3.60
2018-11-27T10:42:56.125Z,3.60
2018-11-27T10:45:26.165Z,3.60
2018-11-27T10:47:56.977Z,3.60
2018-11-27T10:50:26.888Z,3.50
2018-11-27T10:52:57.204Z,3.50
2018-11-27T10:55:27.467Z,3.50
2018-11-27T10:57:57.534Z,3.60
2018-11-27T11:00:33.582Z,3.60
2018-11-27T11:03:24.955Z,3.60
2018-11-27T11:05:56.195Z,3.50
2018-11-27T11:08:26.280Z,3.50
2018-11-27T11:10:56.354Z,3.60
2018-11-27T11:13:26.258Z,3.60
2018-11-27T11:15:56.187Z,3.60
2018-11-27T11:18:26.167Z,3.50
2018-11-27T11:20:56.090Z,3.60
2018-11-27T11:23:26.073Z,3.60
2018-11-27T11:25:56.553Z,3.60
2018-11-27T11:28:29.157Z,3.60
2018-11-27T11:30:59.130Z,3.60
2018-11-27T11:33:28.992Z,3.60
2018-11-27T11:35:59.048Z,3.60
2018-11-27T11:38:29.124Z,3.60
2018-11-27T11:41:00.241Z,3.70
2018-11-27T11:43:30.307Z,3.60
2018-11-27T11:46:00.263Z,3.60
2018-11-27T11:48:30.244Z,3.60
2018-11-27T11:51:00.153Z,3.60
2018-11-27T11:53:30.130Z,3.60
2018-11-27T11:56:00.107Z,3.60
2018-11-27T11:58:30.172Z,3.60
2018-11-27T12:01:00.114Z,3.60
2018-11-27T12:03:30.245Z,3.60
2018-11-27T12:06:00.286Z,3.60
2018-11-27T12:08:30.295Z,3.60
2018-11-27T12:11:00.394Z,3.70
2018-11-27T12:13:30.502Z,3.60
2018-11-27T12:16:02.477Z,3.60
2018-11-27T12:18:32.691Z,3.70
2018-11-27T12:22:05.993Z,3.70
2018-11-27T12:24:37.133Z,3.60
2018-11-27T12:27:07.454Z,3.60
2018-11-27T12:29:37.422Z,3.60
2018-11-27T12:32:07.382Z,3.60
2018-11-27T12:34:37.367Z,3.60
2018-11-27T12:37:07.313Z,3.60
2018-11-27T12:39:37.287Z,3.60
2018-11-27T12:42:07.187Z,3.60
2018-11-27T12:44:40.131Z,3.60
2018-11-27T12:47:10.071Z,3.60
2018-11-27T12:49:40.792Z,3.60
2018-11-27T12:52:11.132Z,3.60
2018-11-27T12:54:41.176Z,3.60
2018-11-27T12:57:11.414Z,3.50
2018-11-27T12:59:41.278Z,3.50
2018-11-27T13:02:11.168Z,3.50
2018-11-27T13:04:41.412Z,3.50
2018-11-27T13:07:12.346Z,3.60
2018-11-27T13:09:42.299Z,3.60
2018-11-27T13:12:12.201Z,3.50
2018-11-27T13:14:42.092Z,3.60
2018-11-27T13:17:11.988Z,3.50
2018-11-27T13:19:42.973Z,3.60
2018-11-27T13:22:12.882Z,3.60
2018-11-27T13:24:42.810Z,3.50
2018-11-27T13:27:12.716Z,3.50
2018-11-27T13:29:42.588Z,3.60
2018-11-27T13:32:12.482Z,3.60
2018-11-27T13:34:47.576Z,3.60
2018-11-27T13:37:12.433Z,3.60
2018-11-27T13:39:42.357Z,3.60
2018-11-27T13:42:12.341Z,3.60
2018-11-27T13:44:42.225Z,3.60
2018-11-27T13:47:13.506Z,3.60
2018-11-27T13:49:43.642Z,3.60
2018-11-27T13:52:13.505Z,3.60
2018-11-27T13:54:43.541Z,3.60
2018-11-27T13:57:13.608Z,3.60
2018-11-27T13:59:43.507Z,3.60
2018-11-27T14:02:13.437Z,3.70
2018-11-27T14:04:44.400Z,3.60
2018-11-27T14:07:14.284Z,3.60
2018-11-27T14:09:45.249Z,3.60
2018-11-27T14:12:14.206Z,3.60
2018-11-27T14:14:44.154Z,3.60
2018-11-27T14:17:14.070Z,3.50
2018-11-27T14:19:43.971Z,3.50
2018-11-27T14:22:14.025Z,3.50
2018-11-27T14:24:43.911Z,3.50
2018-11-27T14:27:14.939Z,3.50
2018-11-27T14:29:44.834Z,3.50
2018-11-27T14:32:14.705Z,3.50
2018-11-27T14:34:44.692Z,3.50
2018-11-27T14:37:14.699Z,3.50
2018-11-27T14:39:44.594Z,3.50
2018-11-27T14:42:14.481Z,3.50
2018-11-27T14:44:44.427Z,3.50
2018-11-27T14:47:14.306Z,3.40
2018-11-27T14:49:44.232Z,3.40
2018-11-27T14:52:14.124Z,3.30
2018-11-27T14:54:44.103Z,3.40
2018-11-27T14:57:14.166Z,3.30
2018-11-27T14:59:44.092Z,3.30
2018-11-27T15:02:14.008Z,3.30
2018-11-27T15:04:44.980Z,3.30
2018-11-27T15:07:14.892Z,3.30
2018-11-27T15:09:51.118Z,3.20
2018-11-27T15:12:21.093Z,3.20
2018-11-27T15:14:51.134Z,3.20
2018-11-27T15:17:21.035Z,3.20
2018-11-27T15:19:51.013Z,3.20
2018-11-27T15:22:20.973Z,3.20
2018-11-27T15:24:50.966Z,3.20
2018-11-27T15:27:20.938Z,3.20
2018-11-27T15:29:50.838Z,3.20
2018-11-27T15:32:20.863Z,3.10
2018-11-27T15:34:50.833Z,3.10
2018-11-27T15:37:27.713Z,3.10
2018-11-27T15:39:58.775Z,3.10
2018-11-27T15:42:28.747Z,3.10
2018-11-27T15:44:58.772Z,3.10
2018-11-27T15:47:28.736Z,3.20
2018-11-27T15:49:58.671Z,3.10
2018-11-27T15:52:28.727Z,3.10
2018-11-27T15:54:58.720Z,3.10
2018-11-27T15:57:28.655Z,3.10
2018-11-27T15:59:58.674Z,3.10
2018-11-27T16:02:28.588Z,3.10
2018-11-27T16:04:58.586Z,3.10
2018-11-27T16:07:28.685Z,3.10
2018-11-27T16:09:58.583Z,3.10
2018-11-27T16:12:28.521Z,3.10
2018-11-27T16:14:58.469Z,3.00
2018-11-27T16:17:28.407Z,3.00
2018-11-27T16:19:58.403Z,3.00
2018-11-27T16:22:29.322Z,3.00
2018-11-27T16:24:59.318Z,3.10
2018-11-27T16:27:29.317Z,3.10
2018-11-27T16:29:59.242Z,3.10
2018-11-27T16:32:29.323Z,3.00
2018-11-27T16:34:59.285Z,3.00
2018-11-27T16:37:29.344Z,3.00
2018-11-27T16:39:59.329Z,3.00
2018-11-27T16:42:30.677Z,3.00
2018-11-27T16:44:59.215Z,3.10
2018-11-27T16:47:29.361Z,3.00
2018-11-27T16:49:59.314Z,3.00
2018-11-27T16:52:29.155Z,3.00
2018-11-27T16:54:59.122Z,3.00
2018-11-27T16:57:29.017Z,3.00
2018-11-27T16:59:58.925Z,3.00
2018-11-27T17:02:28.785Z,3.00
2018-11-27T17:04:59.962Z,3.00
2018-11-27T17:09:53.829Z,3.00
2018-11-27T17:12:23.740Z,3.00
2018-11-27T17:14:53.671Z,3.00
2018-11-27T17:17:23.787Z,3.00
2018-11-27T17:19:53.657Z,3.00
2018-11-27T17:22:23.550Z,3.00
2018-11-27T17:24:53.532Z,3.00
2018-11-27T17:27:23.396Z,3.00
2018-11-27T17:29:53.291Z,3.00
2018-11-27T17:32:23.240Z,3.00
2018-11-27T17:34:53.217Z,3.00
2018-11-27T17:37:23.115Z,3.00
2018-11-27T17:39:52.986Z,3.00
2018-11-27T17:42:23.105Z,3.00
2018-11-27T17:44:53.008Z,3.00
2018-11-27T17:47:22.922Z,3.00
2018-11-27T17:49:52.866Z,3.00
2018-11-27T17:52:22.797Z,3.00
2018-11-27T17:54:52.724Z,3.00
2018-11-27T17:57:22.617Z,3.00
2018-11-27T17:59:52.504Z,3.00
2018-11-27T18:02:22.429Z,2.90
2018-11-27T18:04:52.334Z,2.90
2018-11-27T18:07:22.259Z,3.00
2018-11-27T18:09:52.206Z,3.00
2018-11-27T18:12:22.228Z,3.00
2018-11-27T18:14:52.107Z,3.00
2018-11-27T18:17:22.154Z,3.00
2018-11-27T18:19:52.090Z,3.00
2018-11-27T18:22:22.175Z,2.90
2018-11-27T18:24:52.120Z,2.90
2018-11-27T18:27:22.051Z,3.00
2018-11-27T18:29:52.001Z,2.90
2018-11-27T18:32:21.931Z,2.90
2018-11-27T18:34:51.805Z,2.90
2018-11-27T18:37:21.852Z,3.00
2018-11-27T18:39:51.785Z,3.00
2018-11-27T18:42:21.725Z,3.00
2018-11-27T18:44:51.624Z,3.00
2018-11-27T18:47:21.583Z,3.00
2018-11-27T18:49:51.479Z,3.00
2018-11-27T18:52:21.440Z,3.00
2018-11-27T18:54:51.446Z,3.00
2018-11-27T18:57:21.362Z,3.00
2018-11-27T18:59:51.317Z,3.00
2018-11-27T19:02:21.257Z,3.00
2018-11-27T19:04:52.635Z,3.00
2018-11-27T19:07:22.602Z,3.00
2018-11-27T19:09:52.464Z,3.00
2018-11-27T19:12:22.404Z,3.00
2018-11-27T19:14:52.300Z,3.00
2018-11-27T19:17:22.352Z,3.00
2018-11-27T19:19:52.302Z,3.00
2018-11-27T19:22:22.266Z,3.00
2018-11-27T19:24:52.187Z,3.00
2018-11-27T19:27:22.307Z,3.10
2018-11-27T19:29:52.312Z,3.10
2018-11-27T19:32:22.291Z,3.10
2018-11-27T19:34:53.302Z,3.10
2018-11-27T19:37:23.338Z,3.00
2018-11-27T19:39:53.321Z,3.00
2018-11-27T19:42:23.260Z,3.00
2018-11-27T19:44:53.243Z,3.00
2018-11-27T19:47:23.291Z,3.00
2018-11-27T19:49:53.197Z,3.00
2018-11-27T19:52:23.305Z,3.00
2018-11-27T19:54:53.326Z,3.00
2018-11-27T19:57:23.317Z,3.00
2018-11-27T19:59:53.233Z,2.90
2018-11-27T20:02:23.178Z,3.00
2018-11-27T20:04:53.104Z,3.00
2018-11-27T20:07:23.022Z,3.10
2018-11-27T20:09:52.911Z,3.00
2018-11-27T20:12:22.828Z,3.00
2018-11-27T20:14:52.769Z,3.00
2018-11-27T20:17:22.694Z,3.00
2018-11-27T20:19:52.606Z,3.00
2018-11-27T20:22:22.528Z,3.00
2018-11-27T20:24:52.412Z,3.00
2018-11-27T20:27:22.448Z,3.00
2018-11-27T20:29:52.353Z,3.00
2018-11-27T20:32:22.244Z,3.10
2018-11-27T20:34:52.207Z,3.00
2018-11-27T20:37:22.129Z,3.00
2018-11-27T20:39:52.135Z,2.90
2018-11-27T20:42:22.360Z,3.00
2018-11-27T20:44:52.346Z,3.00
2018-11-27T20:47:22.226Z,2.90
2018-11-27T20:49:52.216Z,3.00
2018-11-27T20:52:22.271Z,3.00
2018-11-27T20:54:52.434Z,3.00
2018-11-27T20:57:22.399Z,3.00
2018-11-27T20:59:52.500Z,3.00
2018-11-27T21:02:22.543Z,3.00
2018-11-27T21:04:53.791Z,3.00
2018-11-27T21:07:24.048Z,3.00
2018-11-27T21:09:54.093Z,3.00
2018-11-27T21:12:23.973Z,3.00
2018-11-27T21:14:53.940Z,3.00
2018-11-27T21:17:23.836Z,3.10
2018-11-27T21:19:53.748Z,3.10
2018-11-27T21:22:23.758Z,3.10
2018-11-27T21:24:53.685Z,3.10
2018-11-27T21:27:23.598Z,3.00
2018-11-27T21:29:53.571Z,3.00
2018-11-27T21:32:24.065Z,3.00
2018-11-27T21:34:54.050Z,3.00
2018-11-27T21:37:23.987Z,3.00
2018-11-27T21:39:53.859Z,3.00
2018-11-27T21:42:23.738Z,3.00
2018-11-27T21:45:57.052Z,3.00
2018-11-27T21:48:26.989Z,3.00
2018-11-27T21:51:00.615Z,3.00
2018-11-27T21:53:30.809Z,3.00
2018-11-27T21:56:00.715Z,2.90
2018-11-27T21:58:30.608Z,2.90
2018-11-27T22:01:00.470Z,2.90
2018-11-27T22:03:30.389Z,2.90
2018-11-27T22:06:00.741Z,2.90
2018-11-27T22:08:30.647Z,2.90
2018-11-27T22:11:00.557Z,2.90
2018-11-27T22:13:30.427Z,3.00
2018-11-27T22:16:00.334Z,2.90
2018-11-27T22:18:30.257Z,2.90
2018-11-27T22:21:00.250Z,3.00
2018-11-27T22:23:30.121Z,3.00
2018-11-27T22:26:06.663Z,3.00
2018-11-27T22:28:36.524Z,3.00
2018-11-27T22:31:06.969Z,3.00
2018-11-27T22:33:36.887Z,3.20
2018-11-27T22:36:06.796Z,3.10
2018-11-27T22:38:36.691Z,3.10
2018-11-27T22:41:06.845Z,3.00
2018-11-27T22:43:36.790Z,3.10
2018-11-27T22:46:07.217Z,3.00
2018-11-27T22:48:37.109Z,3.00
2018-11-27T22:51:07.010Z,3.10
2018-11-27T22:53:36.873Z,3.20
2018-11-27T22:56:07.025Z,3.30
2018-11-27T22:58:36.929Z,3.40
2018-11-27T23:01:06.931Z,3.40
2018-11-27T23:03:36.812Z,3.40
2018-11-27T23:06:06.684Z,3.30
2018-11-27T23:08:36.585Z,3.30
2018-11-27T23:11:06.685Z,3.30
2018-11-27T23:13:36.676Z,3.20
2018-11-27T23:16:07.203Z,3.10
2018-11-27T23:18:37.101Z,3.10
2018-11-27T23:21:07.008Z,3.10
2018-11-27T23:23:36.860Z,3.10
2018-11-27T23:26:06.914Z,3.00
2018-11-27T23:28:36.799Z,3.10
2018-11-27T23:31:06.666Z,3.00
2018-11-27T23:33:36.617Z,3.10
2018-11-27T23:36:06.970Z,3.00
2018-11-27T23:38:36.936Z,3.00
2018-11-27T23:41:06.998Z,3.10
2018-11-27T23:43:36.862Z,3.10
2018-11-27T23:46:07.858Z,3.00
2018-11-27T23:48:37.753Z,3.10
2018-11-27T23:51:07.838Z,3.20
2018-11-27T23:53:37.693Z,3.20
2018-11-27T23:56:07.664Z,3.10
2018-11-27T23:58:38.638Z,3.10
